createdAt,value
2016-06-30T00:00:21.183Z,15.19
2016-06-30T00:01:20.566Z,15.19
2016-06-30T00:02:20.545Z,15.19
2016-06-30T00:03:20.521Z,15.14
2016-06-30T00:04:21.134Z,15.09
2016-06-30T00:05:19.922Z,15.03
2016-06-30T00:06:19.898Z,15.02
2016-06-30T00:07:21.601Z,15.03
2016-06-30T00:08:21.016Z,14.94
2016-06-30T00:09:20.560Z,14.98
2016-06-30T00:10:21.029Z,14.92
2016-06-30T00:11:20.517Z,14.99
2016-06-30T00:12:21.046Z,14.92
2016-06-30T00:13:20.504Z,14.88
2016-06-30T00:14:20.530Z,14.84
2016-06-30T00:15:21.128Z,14.86
2016-06-30T00:16:21.974Z,14.86
2016-06-30T00:17:21.088Z,14.75
2016-06-30T00:18:20.510Z,14.8
2016-06-30T00:19:20.516Z,14.73
2016-06-30T00:20:20.361Z,14.75
2016-06-30T00:21:20.730Z,14.64
2016-06-30T00:22:20.082Z,14.62
2016-06-30T00:23:20.490Z,14.62
2016-06-30T00:24:21.096Z,14.7
2016-06-30T00:25:19.872Z,14.64
2016-06-30T00:26:20.494Z,14.68
2016-06-30T00:27:19.872Z,14.57
2016-06-30T00:28:20.462Z,14.58
2016-06-30T00:29:21.083Z,14.55
2016-06-30T00:30:19.861Z,14.62
2016-06-30T00:31:21.092Z,14.54
2016-06-30T00:32:20.476Z,14.55
2016-06-30T00:33:20.465Z,14.47
2016-06-30T00:34:20.452Z,14.45
2016-06-30T00:35:21.059Z,14.42
2016-06-30T00:36:21.057Z,14.47
2016-06-30T00:37:20.450Z,14.4
2016-06-30T00:38:21.054Z,14.36
2016-06-30T00:39:20.461Z,14.52
2016-06-30T00:40:20.436Z,14.46
2016-06-30T00:41:22.101Z,14.45
2016-06-30T00:42:21.383Z,14.46
2016-06-30T00:43:21.031Z,14.45
2016-06-30T00:44:20.518Z,14.45
2016-06-30T00:45:21.608Z,14.4
2016-06-30T00:46:20.425Z,14.42
2016-06-30T00:47:20.427Z,14.39
2016-06-30T00:48:20.451Z,14.33
2016-06-30T00:49:19.832Z,14.27
2016-06-30T00:50:21.009Z,14.28
2016-06-30T00:51:21.757Z,14.27
2016-06-30T00:52:21.225Z,14.33
2016-06-30T00:53:20.394Z,14.29
2016-06-30T00:54:20.701Z,14.35
2016-06-30T00:55:20.544Z,14.32
2016-06-30T00:56:20.389Z,14.24
2016-06-30T00:57:20.996Z,14.25
2016-06-30T00:58:20.999Z,14.2
2016-06-30T00:59:20.391Z,14.17
2016-06-30T01:00:20.391Z,14.17
2016-06-30T01:01:20.378Z,14.18
2016-06-30T01:02:20.388Z,14.2
2016-06-30T01:03:20.377Z,14.07
2016-06-30T01:04:20.410Z,14.14
2016-06-30T01:05:19.768Z,14.1
2016-06-30T01:06:20.974Z,14.12
2016-06-30T01:07:20.411Z,14.17
2016-06-30T01:08:20.980Z,14.17
2016-06-30T01:09:20.344Z,14.1
2016-06-30T01:10:20.958Z,14.06
2016-06-30T01:11:19.747Z,14.1
2016-06-30T01:12:20.961Z,14.06
2016-06-30T01:13:20.385Z,14
2016-06-30T01:14:20.377Z,13.97
2016-06-30T01:15:20.370Z,13.97
2016-06-30T01:16:19.724Z,14
2016-06-30T01:17:20.348Z,14.03
2016-06-30T01:18:20.947Z,14.03
2016-06-30T01:19:20.345Z,14
2016-06-30T01:20:19.713Z,14.02
2016-06-30T01:21:20.962Z,14.02
2016-06-30T01:22:20.326Z,14.02
2016-06-30T01:23:20.924Z,13.92
2016-06-30T01:24:19.703Z,13.92
2016-06-30T01:25:21.131Z,13.96
2016-06-30T01:26:20.517Z,14.03
2016-06-30T01:27:20.395Z,14.06
2016-06-30T01:28:20.825Z,13.99
2016-06-30T01:29:20.914Z,14.09
2016-06-30T01:30:20.925Z,14.04
2016-06-30T01:31:20.290Z,14.06
2016-06-30T01:32:20.906Z,14.07
2016-06-30T01:33:20.294Z,14.12
2016-06-30T01:34:20.356Z,14.14
2016-06-30T01:35:22.781Z,14.14
2016-06-30T01:36:21.057Z,14.1
2016-06-30T01:37:21.473Z,14.06
2016-06-30T01:38:20.738Z,14.09
2016-06-30T01:39:20.267Z,14.04
2016-06-30T01:40:19.714Z,14.06
2016-06-30T01:41:20.552Z,14.12
2016-06-30T01:42:20.866Z,14.09
2016-06-30T01:43:20.886Z,14.03
2016-06-30T01:44:20.262Z,14.07
2016-06-30T01:45:20.290Z,14.09
2016-06-30T01:46:19.672Z,14.03
2016-06-30T01:47:20.254Z,14.06
2016-06-30T01:48:20.245Z,14.07
2016-06-30T01:49:19.624Z,14
2016-06-30T01:50:20.867Z,13.96
2016-06-30T01:51:19.628Z,13.95
2016-06-30T01:52:20.251Z,13.88
2016-06-30T01:53:20.234Z,13.99
2016-06-30T01:54:19.630Z,13.92
2016-06-30T01:55:19.616Z,13.92
2016-06-30T01:56:20.834Z,13.84
2016-06-30T01:57:20.836Z,13.84
2016-06-30T01:58:20.828Z,13.87
2016-06-30T01:59:19.593Z,13.81
2016-06-30T02:00:21.203Z,13.84
2016-06-30T02:01:20.315Z,13.88
2016-06-30T02:02:19.593Z,13.71
2016-06-30T02:03:20.863Z,13.75
2016-06-30T02:04:20.220Z,13.7
2016-06-30T02:05:19.586Z,13.75
2016-06-30T02:06:20.190Z,13.73
2016-06-30T02:07:20.195Z,13.73
2016-06-30T02:08:20.792Z,13.69
2016-06-30T02:09:21.548Z,13.67
2016-06-30T02:10:20.198Z,13.69
2016-06-30T02:11:20.432Z,13.67
2016-06-30T02:12:20.356Z,13.7
2016-06-30T02:13:20.192Z,13.75
2016-06-30T02:14:20.171Z,13.64
2016-06-30T02:15:20.171Z,13.67
2016-06-30T02:16:20.162Z,13.59
2016-06-30T02:17:19.548Z,13.62
2016-06-30T02:18:20.777Z,13.54
2016-06-30T02:19:20.179Z,13.62
2016-06-30T02:20:20.137Z,13.52
2016-06-30T02:21:20.155Z,13.54
2016-06-30T02:22:20.143Z,13.48
2016-06-30T02:23:20.152Z,13.57
2016-06-30T02:24:20.772Z,13.59
2016-06-30T02:25:20.739Z,13.52
2016-06-30T02:26:20.125Z,13.59
2016-06-30T02:27:20.131Z,13.51
2016-06-30T02:28:20.763Z,13.51
2016-06-30T02:29:20.117Z,13.59
2016-06-30T02:30:20.116Z,13.6
2016-06-30T02:31:20.720Z,13.55
2016-06-30T02:32:19.548Z,13.55
2016-06-30T02:33:19.551Z,13.45
2016-06-30T02:34:20.101Z,13.44
2016-06-30T02:35:20.126Z,13.42
2016-06-30T02:36:20.119Z,13.42
2016-06-30T02:37:20.721Z,13.42
2016-06-30T02:38:20.699Z,13.42
2016-06-30T02:39:19.481Z,13.42
2016-06-30T02:40:20.082Z,13.39
2016-06-30T02:41:20.079Z,13.38
2016-06-30T02:42:19.467Z,13.39
2016-06-30T02:43:20.075Z,13.29
2016-06-30T02:44:21.931Z,13.36
2016-06-30T02:45:20.930Z,13.3
2016-06-30T02:46:22.050Z,13.19
2016-06-30T02:47:20.670Z,13.28
2016-06-30T02:48:20.071Z,13.28
2016-06-30T02:49:20.685Z,13.25
2016-06-30T02:50:19.467Z,13.22
2016-06-30T02:51:19.435Z,13.32
2016-06-30T02:52:20.665Z,13.22
2016-06-30T02:53:20.911Z,13.25
2016-06-30T02:54:20.050Z,13.23
2016-06-30T02:55:21.528Z,13.36
2016-06-30T02:56:20.668Z,13.28
2016-06-30T02:57:20.475Z,13.26
2016-06-30T02:58:20.291Z,13.39
2016-06-30T02:59:20.623Z,13.38
2016-06-30T03:00:20.015Z,13.39
2016-06-30T03:01:19.393Z,13.45
2016-06-30T03:02:20.008Z,13.39
2016-06-30T03:03:20.616Z,13.42
2016-06-30T03:04:20.605Z,13.39
2016-06-30T03:05:19.390Z,13.44
2016-06-30T03:06:19.385Z,13.48
2016-06-30T03:07:19.994Z,13.49
2016-06-30T03:08:19.992Z,13.55
2016-06-30T03:09:20.603Z,13.54
2016-06-30T03:10:19.382Z,13.59
2016-06-30T03:11:19.977Z,13.54
2016-06-30T03:12:19.969Z,13.64
2016-06-30T03:13:19.977Z,13.62
2016-06-30T03:14:19.973Z,13.63
2016-06-30T03:15:19.354Z,13.6
2016-06-30T03:16:19.574Z,13.66
2016-06-30T03:17:19.946Z,13.71
2016-06-30T03:19:21.152Z,13.77
2016-06-30T03:20:21.006Z,13.84
2016-06-30T03:21:34.873Z,13.84
2016-06-30T03:22:20.161Z,13.91
2016-06-30T03:23:20.164Z,13.95
2016-06-30T03:24:20.562Z,13.89
2016-06-30T03:25:19.585Z,14
2016-06-30T03:26:19.931Z,14.04
2016-06-30T03:27:19.931Z,14
2016-06-30T03:28:19.731Z,14.03
2016-06-30T03:29:19.943Z,14.09
2016-06-30T03:30:20.097Z,14.14
2016-06-30T03:31:19.610Z,14.2
2016-06-30T03:32:19.923Z,14.22
2016-06-30T03:33:19.920Z,14.29
2016-06-30T03:34:19.291Z,14.32
2016-06-30T03:35:19.922Z,14.27
2016-06-30T03:36:19.901Z,14.25
2016-06-30T03:37:19.910Z,14.28
2016-06-30T03:38:19.911Z,14.25
2016-06-30T03:39:19.909Z,14.28
2016-06-30T03:40:19.903Z,14.39
2016-06-30T03:41:19.891Z,14.45
2016-06-30T03:42:19.285Z,14.5
2016-06-30T03:43:20.506Z,14.54
2016-06-30T03:44:19.905Z,14.58
2016-06-30T03:45:20.517Z,14.77
2016-06-30T03:46:20.481Z,14.81
2016-06-30T03:47:20.513Z,14.84
2016-06-30T03:48:19.890Z,14.94
2016-06-30T03:49:20.472Z,15.06
2016-06-30T03:50:19.877Z,15.11
2016-06-30T03:51:20.474Z,15.23
2016-06-30T03:52:19.858Z,15.31
2016-06-30T03:53:20.466Z,15.39
2016-06-30T03:54:20.461Z,15.59
2016-06-30T03:55:19.867Z,15.6
2016-06-30T03:56:19.857Z,15.96
2016-06-30T03:57:19.855Z,16.08
2016-06-30T03:58:19.863Z,16.52
2016-06-30T03:59:19.834Z,16.97
2016-06-30T04:00:19.258Z,17.23
2016-06-30T04:01:20.452Z,17.66
2016-06-30T04:02:22.113Z,18.02
2016-06-30T04:03:20.773Z,18.45
2016-06-30T04:04:19.833Z,18.81
2016-06-30T04:05:19.234Z,19.18
2016-06-30T04:06:19.660Z,19.5
2016-06-30T04:07:19.875Z,19.78
2016-06-30T04:08:19.853Z,20.17
2016-06-30T04:09:20.459Z,20.5
2016-06-30T04:10:19.842Z,20.94
2016-06-30T04:11:22.698Z,21.24
2016-06-30T04:12:20.590Z,21.64
2016-06-30T04:13:22.059Z,22.1
2016-06-30T04:14:21.753Z,22.35
2016-06-30T04:15:21.045Z,22.76
2016-06-30T04:16:19.859Z,22.94
2016-06-30T04:17:19.951Z,23.13
2016-06-30T04:18:19.871Z,23.23
2016-06-30T04:19:19.868Z,23.48
2016-06-30T04:20:19.870Z,23.53
2016-06-30T04:21:20.481Z,23.65
2016-06-30T04:22:20.492Z,23.66
2016-06-30T04:23:19.878Z,23.83
2016-06-30T04:24:19.274Z,23.95
2016-06-30T04:25:20.517Z,24.05
2016-06-30T04:26:20.498Z,24.06
2016-06-30T04:27:19.904Z,24.25
2016-06-30T04:28:19.286Z,24.32
2016-06-30T04:29:19.931Z,24.5
2016-06-30T04:30:20.518Z,24.68
2016-06-30T04:31:20.535Z,24.85
2016-06-30T04:32:19.926Z,25.13
2016-06-30T04:33:19.322Z,25.33
2016-06-30T04:34:19.936Z,25.54
2016-06-30T04:35:19.931Z,25.83
2016-06-30T04:36:19.947Z,26.09
2016-06-30T04:37:20.607Z,26.39
2016-06-30T04:38:20.499Z,26.6
2016-06-30T04:39:20.150Z,26.8
2016-06-30T04:40:34.840Z,27
2016-06-30T04:41:19.975Z,27.18
2016-06-30T04:42:19.981Z,27.29
2016-06-30T04:43:19.689Z,27.5
2016-06-30T04:44:20.600Z,27.7
2016-06-30T04:45:20.607Z,27.66
2016-06-30T04:46:20.539Z,27.75
2016-06-30T04:47:20.919Z,27.77
2016-06-30T04:48:20.019Z,27.79
2016-06-30T04:49:34.285Z,27.92
2016-06-30T04:50:20.034Z,28.02
2016-06-30T04:51:19.443Z,28.12
2016-06-30T04:52:19.447Z,28.29
2016-06-30T04:53:20.357Z,28.56
2016-06-30T04:54:19.457Z,28.7
2016-06-30T04:55:20.140Z,28.9
2016-06-30T04:56:20.689Z,28.93
2016-06-30T04:57:20.110Z,29.09
2016-06-30T04:58:20.108Z,29.19
2016-06-30T04:59:19.504Z,29.27
2016-06-30T05:00:20.108Z,29.33
2016-06-30T05:01:19.520Z,29.49
2016-06-30T05:02:19.529Z,29.57
2016-06-30T05:03:20.758Z,29.74
2016-06-30T05:04:19.570Z,29.78
2016-06-30T05:05:19.613Z,29.87
2016-06-30T05:06:20.177Z,29.89
2016-06-30T05:07:20.195Z,29.94
2016-06-30T05:08:20.819Z,30.02
2016-06-30T05:09:19.588Z,29.92
2016-06-30T05:10:20.220Z,29.94
2016-06-30T05:11:20.222Z,30.07
2016-06-30T05:12:20.220Z,30.07
2016-06-30T05:13:20.230Z,30.19
2016-06-30T05:14:20.242Z,30.19
2016-06-30T05:15:20.874Z,30.23
2016-06-30T05:16:20.260Z,30.32
2016-06-30T05:17:19.666Z,30.42
2016-06-30T05:18:20.894Z,30.45
2016-06-30T05:19:19.678Z,30.45
2016-06-30T05:20:21.556Z,30.64
2016-06-30T05:21:20.923Z,30.83
2016-06-30T05:22:22.507Z,30.94
2016-06-30T05:23:20.339Z,30.99
2016-06-30T05:24:20.346Z,31.2
2016-06-30T05:25:20.974Z,31.31
2016-06-30T05:26:20.442Z,31.43
2016-06-30T05:27:20.077Z,31.54
2016-06-30T05:28:20.383Z,31.62
2016-06-30T05:29:20.410Z,31.73
2016-06-30T05:30:21.878Z,31.86
2016-06-30T05:31:21.908Z,32.03
2016-06-30T05:32:21.121Z,32.33
2016-06-30T05:33:21.917Z,32.43
2016-06-30T05:34:21.803Z,32.52
2016-06-30T05:35:20.560Z,32.69
2016-06-30T05:36:20.529Z,32.78
2016-06-30T05:37:20.537Z,32.88
2016-06-30T05:38:21.153Z,33.07
2016-06-30T05:39:20.500Z,33.15
2016-06-30T05:40:20.547Z,33.41
2016-06-30T05:41:20.519Z,33.72
2016-06-30T05:42:21.252Z,33.94
2016-06-30T05:43:20.562Z,34.13
2016-06-30T05:44:20.573Z,34.42
2016-06-30T05:45:20.591Z,34.64
2016-06-30T05:46:21.211Z,34.87
2016-06-30T05:47:20.615Z,35.04
2016-06-30T05:48:21.231Z,35.43
2016-06-30T05:49:20.633Z,35.56
2016-06-30T05:50:21.249Z,35.93
2016-06-30T05:51:20.054Z,36.13
2016-06-30T05:52:20.675Z,36.34
2016-06-30T05:53:20.691Z,36.39
2016-06-30T05:54:20.705Z,36.35
2016-06-30T05:55:21.694Z,36.47
2016-06-30T05:57:21.422Z,36.72
2016-06-30T05:58:35.634Z,36.8
2016-06-30T05:59:21.587Z,36.9
2016-06-30T06:00:21.405Z,37.03
2016-06-30T06:01:20.196Z,37.17
2016-06-30T06:02:20.205Z,37.15
2016-06-30T06:03:20.870Z,37.24
2016-06-30T06:04:21.854Z,37.17
2016-06-30T06:06:20.928Z,36.88
2016-06-30T06:07:20.963Z,36.83
2016-06-30T06:08:21.727Z,36.84
2016-06-30T06:09:21.545Z,36.9
2016-06-30T06:10:21.311Z,37.02
2016-06-30T06:11:21.720Z,37.1
2016-06-30T06:12:20.991Z,37.32
2016-06-30T06:13:21.615Z,37.47
2016-06-30T06:14:21.626Z,37.44
2016-06-30T06:15:20.417Z,37.51
2016-06-30T06:16:21.043Z,37.44
2016-06-30T06:17:21.699Z,37.44
2016-06-30T06:18:21.703Z,37.4
2016-06-30T06:19:21.105Z,37.41
2016-06-30T06:20:20.512Z,37.49
2016-06-30T06:21:21.149Z,37.43
2016-06-30T06:22:21.143Z,37.43
2016-06-30T06:23:21.189Z,37.41
2016-06-30T06:24:21.209Z,37.28
2016-06-30T06:25:21.214Z,37.49
2016-06-30T06:26:20.624Z,37.39
2016-06-30T06:27:21.249Z,37.41
2016-06-30T06:28:21.860Z,37.24
2016-06-30T06:29:20.677Z,37.18
2016-06-30T06:30:21.295Z,37.03
2016-06-30T06:31:21.932Z,36.81
2016-06-30T06:32:21.319Z,36.57
2016-06-30T06:33:21.338Z,36.46
2016-06-30T06:34:21.371Z,36.25
2016-06-30T06:35:21.985Z,36.03
2016-06-30T06:36:20.798Z,35.78
2016-06-30T06:37:22.019Z,35.48
2016-06-30T06:38:21.460Z,35.43
2016-06-30T06:39:22.433Z,35.26
2016-06-30T06:40:23.017Z,35.26
2016-06-30T06:41:22.571Z,35.34
2016-06-30T06:42:22.070Z,35.43
2016-06-30T06:43:22.426Z,35.44
2016-06-30T06:44:21.503Z,35.48
2016-06-30T06:45:21.525Z,35.37
2016-06-30T06:46:22.149Z,35.29
2016-06-30T06:47:22.160Z,35.18
2016-06-30T06:48:22.660Z,35.15
2016-06-30T06:49:23.809Z,34.94
2016-06-30T06:50:22.192Z,34.78
2016-06-30T06:51:21.623Z,34.65
2016-06-30T06:52:22.032Z,34.75
2016-06-30T06:53:22.934Z,34.61
2016-06-30T06:54:22.090Z,34.58
2016-06-30T06:55:21.948Z,34.65
2016-06-30T06:56:21.667Z,34.7
2016-06-30T06:57:21.711Z,34.66
2016-06-30T06:58:21.709Z,34.62
2016-06-30T06:59:21.109Z,34.7
2016-06-30T07:00:21.725Z,34.81
2016-06-30T07:01:22.357Z,34.97
2016-06-30T07:02:21.762Z,35.1
2016-06-30T07:03:22.391Z,35.28
2016-06-30T07:04:21.825Z,35.5
2016-06-30T07:05:21.810Z,35.52
2016-06-30T07:06:22.489Z,35.71
2016-06-30T07:07:21.842Z,35.85
2016-06-30T07:08:21.265Z,36
2016-06-30T07:09:22.482Z,36.17
2016-06-30T07:10:21.903Z,36.31
2016-06-30T07:11:22.521Z,36.53
2016-06-30T07:12:21.323Z,36.64
2016-06-30T07:13:22.565Z,36.87
2016-06-30T07:15:37.729Z,37.17
2016-06-30T07:16:22.750Z,37.21
2016-06-30T07:17:23.062Z,37.34
2016-06-30T07:18:22.025Z,37.46
2016-06-30T07:19:21.734Z,37.51
2016-06-30T07:20:22.069Z,37.57
2016-06-30T07:21:22.096Z,37.75
2016-06-30T07:22:22.736Z,37.74
2016-06-30T07:23:22.378Z,37.74
2016-06-30T07:24:22.829Z,37.79
2016-06-30T07:25:22.784Z,37.98
2016-06-30T07:26:22.198Z,38
2016-06-30T07:27:22.811Z,37.91
2016-06-30T07:28:22.221Z,37.91
2016-06-30T07:29:22.877Z,38
2016-06-30T07:30:22.891Z,38.06
2016-06-30T07:31:22.893Z,38.13
2016-06-30T07:32:21.727Z,38.15
2016-06-30T07:33:22.941Z,38.34
2016-06-30T07:34:22.966Z,38.49
2016-06-30T07:35:21.757Z,38.66
2016-06-30T07:36:22.991Z,38.87
2016-06-30T07:37:22.395Z,39.13
2016-06-30T07:38:21.822Z,39.47
2016-06-30T07:39:23.059Z,39.48
2016-06-30T07:40:22.474Z,39.52
2016-06-30T07:41:22.485Z,39.64
2016-06-30T07:42:22.558Z,39.72
2016-06-30T07:43:22.528Z,39.75
2016-06-30T07:44:21.930Z,39.75
2016-06-30T07:45:22.572Z,39.55
2016-06-30T07:46:22.593Z,39.36
2016-06-30T07:47:23.217Z,39.22
2016-06-30T07:48:23.244Z,39.17
2016-06-30T07:49:22.051Z,39.07
2016-06-30T07:50:22.689Z,38.87
2016-06-30T07:51:22.678Z,38.84
2016-06-30T07:52:22.694Z,38.76
2016-06-30T07:53:23.341Z,38.95
2016-06-30T07:54:23.349Z,38.96
2016-06-30T07:55:23.385Z,39.09
2016-06-30T07:56:22.781Z,39.26
2016-06-30T07:57:23.666Z,39.26
2016-06-30T07:58:24.025Z,39.26
2016-06-30T07:59:24.403Z,39.36
2016-06-30T08:00:22.635Z,39.28
2016-06-30T08:01:22.875Z,39.16
2016-06-30T08:02:23.578Z,39.14
2016-06-30T08:03:22.941Z,38.96
2016-06-30T08:04:23.574Z,38.87
2016-06-30T08:05:23.594Z,38.69
2016-06-30T08:07:24.471Z,38.54
2016-06-30T08:08:23.759Z,38.5
2016-06-30T08:09:24.267Z,38.59
2016-06-30T08:10:23.658Z,38.54
2016-06-30T08:11:23.068Z,38.56
2016-06-30T08:12:23.089Z,38.57
2016-06-30T08:13:23.718Z,38.57
2016-06-30T08:14:23.749Z,38.66
2016-06-30T08:15:23.763Z,38.74
2016-06-30T08:16:23.770Z,38.96
2016-06-30T08:17:22.573Z,39.09
2016-06-30T08:18:23.811Z,39.43
2016-06-30T08:19:23.831Z,39.41
2016-06-30T08:20:23.253Z,39.59
2016-06-30T08:21:23.258Z,39.48
2016-06-30T08:22:23.878Z,39.48
2016-06-30T08:23:23.960Z,39.67
2016-06-30T08:24:23.932Z,39.94
2016-06-30T08:25:23.330Z,40.22
2016-06-30T08:26:22.773Z,40.45
2016-06-30T08:27:23.386Z,40.64
2016-06-30T08:28:22.781Z,40.84
2016-06-30T08:29:24.030Z,40.89
2016-06-30T08:30:24.046Z,40.88
2016-06-30T08:31:24.066Z,40.83
2016-06-30T08:32:24.535Z,40.89
2016-06-30T08:33:24.945Z,40.84
2016-06-30T08:34:23.536Z,40.79
2016-06-30T08:35:24.159Z,40.74
2016-06-30T08:36:24.684Z,40.53
2016-06-30T08:37:23.608Z,40.22
2016-06-30T08:38:24.524Z,40.06
2016-06-30T08:39:23.645Z,39.73
2016-06-30T08:40:23.641Z,39.55
2016-06-30T08:42:24.286Z,39.07
2016-06-30T08:44:23.714Z,38.57
2016-06-30T08:45:24.355Z,38.41
2016-06-30T08:46:23.760Z,38.2
2016-06-30T08:47:24.386Z,38.01
2016-06-30T08:48:23.799Z,37.82
2016-06-30T08:49:23.215Z,37.72
2016-06-30T08:50:23.843Z,37.47
2016-06-30T08:51:23.844Z,37.34
2016-06-30T08:52:23.877Z,37.18
2016-06-30T08:53:23.285Z,36.87
2016-06-30T08:54:24.501Z,36.69
2016-06-30T08:55:23.923Z,36.46
2016-06-30T08:56:23.937Z,36.35
2016-06-30T08:57:23.971Z,36.2
2016-06-30T08:58:23.989Z,36.23
2016-06-30T08:59:24.008Z,36.07
2016-06-30T09:00:24.010Z,35.82
2016-06-30T09:01:23.398Z,35.62
2016-06-30T09:02:24.658Z,35.5
2016-06-30T09:03:24.646Z,35.33
2016-06-30T09:04:23.449Z,35.04
2016-06-30T09:05:23.475Z,34.89
2016-06-30T09:06:23.519Z,34.75
2016-06-30T09:07:24.701Z,34.5
2016-06-30T09:08:23.512Z,34.42
2016-06-30T09:09:24.737Z,34.19
2016-06-30T09:10:24.166Z,34.16
2016-06-30T09:11:23.555Z,34.09
2016-06-30T09:12:24.782Z,34.02
2016-06-30T09:13:24.801Z,34
2016-06-30T09:14:23.596Z,34.12
2016-06-30T09:15:23.617Z,34.16
2016-06-30T09:17:24.902Z,34.13
2016-06-30T09:18:23.659Z,34.09
2016-06-30T09:19:24.258Z,33.97
2016-06-30T09:20:24.507Z,33.88
2016-06-30T09:21:24.463Z,33.81
2016-06-30T09:22:24.903Z,33.91
2016-06-30T09:23:24.363Z,33.86
2016-06-30T09:24:24.349Z,33.82
2016-06-30T09:25:24.945Z,33.84
2016-06-30T09:26:25.666Z,33.86
2016-06-30T09:27:25.534Z,33.82
2016-06-30T09:28:24.357Z,33.86
2016-06-30T09:29:25.774Z,33.88
2016-06-30T09:30:25.537Z,33.79
2016-06-30T09:31:24.911Z,33.72
2016-06-30T09:32:24.421Z,33.63
2016-06-30T09:33:25.036Z,33.63
2016-06-30T09:34:24.428Z,33.47
2016-06-30T09:35:23.857Z,33.5
2016-06-30T09:36:25.075Z,33.56
2016-06-30T09:37:25.089Z,33.49
2016-06-30T09:38:24.482Z,33.53
2016-06-30T09:39:25.106Z,33.63
2016-06-30T09:40:23.925Z,33.54
2016-06-30T09:41:24.520Z,33.51
2016-06-30T09:42:25.157Z,33.39
2016-06-30T09:43:24.546Z,33.18
2016-06-30T09:44:24.571Z,33.03
2016-06-30T09:45:23.950Z,32.81
2016-06-30T09:46:24.584Z,32.74
2016-06-30T09:47:24.642Z,32.72
2016-06-30T09:48:24.612Z,32.74
2016-06-30T09:49:24.609Z,32.65
2016-06-30T09:51:25.581Z,32.62
2016-06-30T09:52:25.451Z,32.56
2016-06-30T09:53:26.060Z,32.56
2016-06-30T09:54:24.675Z,32.57
2016-06-30T09:55:24.679Z,32.45
2016-06-30T09:56:24.142Z,32.41
2016-06-30T09:57:25.657Z,32.35
2016-06-30T09:58:24.257Z,32.38
2016-06-30T09:59:24.731Z,32.33
2016-06-30T10:00:24.837Z,32.35
2016-06-30T10:01:24.228Z,32.4
2016-06-30T10:02:40.200Z,32.3
2016-06-30T10:03:24.766Z,32.3
2016-06-30T10:04:25.413Z,32.35
2016-06-30T10:05:25.420Z,32.4
2016-06-30T10:06:25.700Z,32.32
2016-06-30T10:07:25.429Z,32.22
2016-06-30T10:08:25.477Z,32.25
2016-06-30T10:09:24.830Z,32.25
2016-06-30T10:10:24.835Z,32.33
2016-06-30T10:11:24.859Z,32.26
2016-06-30T10:12:24.924Z,32.26
2016-06-30T10:13:24.260Z,32.23
2016-06-30T10:14:24.277Z,32.3
2016-06-30T10:15:24.902Z,32.37
2016-06-30T10:16:24.910Z,32.26
2016-06-30T10:17:24.917Z,32.37
2016-06-30T10:18:25.542Z,32.38
2016-06-30T10:19:24.945Z,32.33
2016-06-30T10:20:24.339Z,32.4
2016-06-30T10:21:25.562Z,32.41
2016-06-30T10:22:24.973Z,32.48
2016-06-30T10:23:24.997Z,32.51
2016-06-30T10:24:24.381Z,32.48
2016-06-30T10:25:25.011Z,32.51
2016-06-30T10:26:25.625Z,32.5
2016-06-30T10:27:25.026Z,32.37
2016-06-30T10:28:24.447Z,32.29
2016-06-30T10:29:25.660Z,32.35
2016-06-30T10:30:25.678Z,32.21
2016-06-30T10:31:25.086Z,32.26
2016-06-30T10:32:25.096Z,32.19
2016-06-30T10:33:25.730Z,32.03
2016-06-30T10:34:25.966Z,31.95
2016-06-30T10:35:26.057Z,31.86
2016-06-30T10:36:26.124Z,31.8
2016-06-30T10:37:26.106Z,31.72
2016-06-30T10:38:25.635Z,31.7
2016-06-30T10:39:25.794Z,31.7
2016-06-30T10:40:25.777Z,31.65
2016-06-30T10:41:25.185Z,31.7
2016-06-30T10:42:24.607Z,31.68
2016-06-30T10:43:27.394Z,31.53
2016-06-30T10:44:26.673Z,31.53
2016-06-30T10:45:25.839Z,31.57
2016-06-30T10:46:26.407Z,31.62
2016-06-30T10:47:26.636Z,31.65
2016-06-30T10:48:25.989Z,31.7
2016-06-30T10:49:25.264Z,31.68
2016-06-30T10:50:24.670Z,31.68
2016-06-30T10:51:25.275Z,31.66
2016-06-30T10:52:25.293Z,31.7
2016-06-30T10:53:25.331Z,31.68
2016-06-30T10:54:25.328Z,31.68
2016-06-30T10:55:25.319Z,31.65
2016-06-30T10:56:25.338Z,31.68
2016-06-30T10:57:25.345Z,31.57
2016-06-30T10:58:25.371Z,31.47
2016-06-30T10:59:25.973Z,31.35
2016-06-30T11:00:25.981Z,31.39
2016-06-30T11:01:26.007Z,31.38
2016-06-30T11:02:26.025Z,31.41
2016-06-30T11:03:26.001Z,31.41
2016-06-30T11:04:24.827Z,31.39
2016-06-30T11:05:26.051Z,31.47
2016-06-30T11:06:25.494Z,31.32
2016-06-30T11:07:26.055Z,31.36
2016-06-30T11:08:25.479Z,31.19
2016-06-30T11:09:26.061Z,31.26
2016-06-30T11:10:26.793Z,31.31
2016-06-30T11:11:26.493Z,31.29
2016-06-30T11:12:25.501Z,31.31
2016-06-30T11:13:25.808Z,31.32
2016-06-30T11:14:25.523Z,31.31
2016-06-30T11:15:25.525Z,31.46
2016-06-30T11:16:25.555Z,31.46
2016-06-30T11:17:26.168Z,31.32
2016-06-30T11:19:24.955Z,31.2
2016-06-30T11:20:26.200Z,31.25
2016-06-30T11:21:25.757Z,31.23
2016-06-30T11:22:27.058Z,31.29
2016-06-30T11:23:26.212Z,31.29
2016-06-30T11:24:25.622Z,31.35
2016-06-30T11:25:26.286Z,31.51
2016-06-30T11:26:25.655Z,31.53
2016-06-30T11:27:26.273Z,31.48
2016-06-30T11:28:25.670Z,31.66
2016-06-30T11:29:25.669Z,31.68
2016-06-30T11:30:26.293Z,31.75
2016-06-30T11:31:25.694Z,31.66
2016-06-30T11:32:25.695Z,31.68
2016-06-30T11:33:26.328Z,31.76
2016-06-30T11:34:25.118Z,31.75
2016-06-30T11:35:25.744Z,31.72
2016-06-30T11:36:26.339Z,31.76
2016-06-30T11:37:25.754Z,31.93
2016-06-30T11:38:25.760Z,31.96
2016-06-30T11:39:25.790Z,32.03
2016-06-30T11:40:25.791Z,32.04
2016-06-30T11:41:25.807Z,32.03
2016-06-30T11:42:26.415Z,32.01
2016-06-30T11:43:26.500Z,31.85
2016-06-30T11:44:26.445Z,31.89
2016-06-30T11:45:25.837Z,31.92
2016-06-30T11:46:26.446Z,31.91
2016-06-30T11:47:25.863Z,31.96
2016-06-30T11:48:25.886Z,32
2016-06-30T11:49:25.882Z,32.06
2016-06-30T11:50:26.512Z,32.03
2016-06-30T11:51:25.898Z,31.99
2016-06-30T11:52:25.292Z,31.85
2016-06-30T11:53:25.935Z,31.86
2016-06-30T11:54:26.545Z,31.8
2016-06-30T11:55:25.940Z,31.86
2016-06-30T11:56:26.207Z,31.88
2016-06-30T11:57:25.607Z,31.89
2016-06-30T11:58:25.403Z,32
2016-06-30T11:59:25.767Z,32.04
2016-06-30T12:00:25.404Z,32
2016-06-30T12:01:26.023Z,32
2016-06-30T12:02:27.479Z,32.08
2016-06-30T12:03:27.913Z,32.21
2016-06-30T12:04:27.396Z,32.38
2016-06-30T12:05:26.056Z,32.45
2016-06-30T12:06:27.116Z,32.55
2016-06-30T12:07:26.691Z,32.5
2016-06-30T12:08:26.218Z,32.47
2016-06-30T12:09:26.318Z,32.43
2016-06-30T12:10:26.098Z,32.51
2016-06-30T12:11:26.102Z,32.57
2016-06-30T12:12:25.506Z,32.52
2016-06-30T12:13:25.533Z,32.35
2016-06-30T12:14:26.132Z,32.13
2016-06-30T12:15:26.760Z,32.21
2016-06-30T12:16:25.564Z,32.15
2016-06-30T12:17:26.165Z,32.15
2016-06-30T12:18:26.810Z,32.07
2016-06-30T12:19:26.193Z,31.92
2016-06-30T12:20:26.188Z,31.92
2016-06-30T12:21:26.211Z,31.91
2016-06-30T12:22:25.604Z,31.99
2016-06-30T12:23:26.219Z,31.96
2016-06-30T12:24:26.853Z,31.92
2016-06-30T12:25:26.255Z,32.07
2016-06-30T12:26:25.694Z,31.99
2016-06-30T12:28:41.693Z,31.75
2016-06-30T12:29:26.601Z,31.72
2016-06-30T12:30:26.911Z,31.68
2016-06-30T12:31:26.956Z,31.53
2016-06-30T12:32:26.316Z,31.38
2016-06-30T12:33:26.331Z,31.25
2016-06-30T12:34:26.340Z,31.2
2016-06-30T12:35:26.350Z,31.17
2016-06-30T12:36:41.223Z,31.09
2016-06-30T12:37:28.841Z,31.01
2016-06-30T12:38:26.976Z,30.94
2016-06-30T12:39:27.008Z,30.89
2016-06-30T12:40:27.007Z,30.83
2016-06-30T12:41:25.824Z,30.82
2016-06-30T12:42:27.233Z,30.86
2016-06-30T12:43:26.733Z,30.82
2016-06-30T12:44:27.051Z,30.76
2016-06-30T12:45:26.446Z,30.86
2016-06-30T12:46:26.458Z,30.86
2016-06-30T12:47:27.070Z,30.89
2016-06-30T12:48:26.474Z,30.92
2016-06-30T12:49:26.514Z,30.95
2016-06-30T12:50:26.505Z,30.92
2016-06-30T12:51:25.913Z,30.86
2016-06-30T12:52:27.167Z,30.84
2016-06-30T12:53:27.167Z,30.97
2016-06-30T12:54:25.941Z,30.95
2016-06-30T12:55:26.558Z,31.09
2016-06-30T12:56:27.161Z,31.14
2016-06-30T12:57:26.566Z,31.2
2016-06-30T12:58:27.202Z,31.28
2016-06-30T12:59:25.976Z,31.28
2016-06-30T13:00:27.215Z,31.28
2016-06-30T13:01:26.602Z,31.41
2016-06-30T13:02:27.225Z,31.35
2016-06-30T13:03:26.040Z,31.39
2016-06-30T13:04:26.626Z,31.29
2016-06-30T13:05:27.269Z,31.17
2016-06-30T13:06:26.660Z,31.14
2016-06-30T13:07:26.056Z,31.16